KCLT/CLT METAR and TAF weather

Enter ICAO airport designator
Station Type Date Time Source
KCLT METAR 2020/07/10 14:52 UTC NOAA

KCLT 101452Z 32004KT 10SM SCT030 SCT095 BKN250 31/21 A2995 RMK AO2 SLP132 T03060211 56003


Station Type Date Time Source
KCLT Decoded METAR 2020/07/10 14:52 UTC NOAA

CHARLOTTE/DOUGLAS INTERNATIONAL , NC, United States (KCLT) 35-13N 80-57W 220M
Jul 10, 2020 - 10:52 AM EDT / 2020.07.10 1452 UTC
Wind: from the NW (320 degrees) at 5 MPH (4 KT):0
Visibility: 10 mile(s):0
Sky conditions: mostly cloudy
Temperature: 87.1 F (30.6 C)
Dew Point: 70.0 F (21.1 C)
Relative Humidity: 56%
Pressure (altimeter): 29.95 in. Hg (1014 hPa)
Pressure tendency: 0.01 inches (0.3 hPa) lower than three hours ago
ob: KCLT 101452Z 32004KT 10SM SCT030 SCT095 BKN250 31/21 A2995 RMK AO2 SLP132 T03060211 56003
cycle: 15

Station Type Date Time Source
KCLT TAF 2020/07/10 13:18 UTC NOAA

TAF
AMD KCLT 101315Z 1013/1118 VRB03KT P6SM OVC070
FM101700 25006KT P6SM VCSH SCT050
TEMPO 1021/1101 4SM TSRA BR BKN040CB
FM110400 23003KT P6SM SCT030
FM111300 33004KT P6SM FEW250

Example: see airport list